createdAt,value
2022-08-23T00:01:50.504Z,55.10
2022-08-23T00:04:24.430Z,55.30
2022-08-23T00:07:02.046Z,55.50
2022-08-23T00:09:29.349Z,55.40
2022-08-23T00:12:08.687Z,55.30
2022-08-23T00:14:39.644Z,55.20
2022-08-23T00:17:10.258Z,55.40
2022-08-23T00:19:40.061Z,55.40
2022-08-23T00:22:07.527Z,55.30
2022-08-23T00:24:39.137Z,55.30
2022-08-23T00:27:11.477Z,55.60
2022-08-23T00:29:38.167Z,55.60
2022-08-23T00:32:11.473Z,55.10
2022-08-23T00:34:39.036Z,55.30
2022-08-23T00:37:06.891Z,55.30
2022-08-23T00:39:33.588Z,55.20
2022-08-23T00:42:30.076Z,55.20
2022-08-23T00:45:17.664Z,55.40
2022-08-23T00:47:45.297Z,55.30
2022-08-23T00:50:29.512Z,55.30
2022-08-23T00:53:12.220Z,55.40
2022-08-23T00:55:42.497Z,55.00
2022-08-23T00:58:10.170Z,55.50
2022-08-23T01:00:36.833Z,55.60
2022-08-23T01:03:07.536Z,55.60
2022-08-23T01:05:49.300Z,55.70
2022-08-23T01:08:16.504Z,55.70
2022-08-23T01:10:49.995Z,55.50
2022-08-23T01:13:27.208Z,55.90
2022-08-23T01:15:58.458Z,55.60
2022-08-23T01:18:28.780Z,55.60
2022-08-23T01:21:08.051Z,55.60
2022-08-23T01:23:43.183Z,55.70
2022-08-23T01:26:12.069Z,55.90
2022-08-23T01:28:40.891Z,56.10
2022-08-23T01:31:13.856Z,55.90
2022-08-23T01:33:41.976Z,56.00
2022-08-23T01:36:12.071Z,56.20
2022-08-23T01:38:39.347Z,56.20
2022-08-23T01:41:09.769Z,56.00
2022-08-23T01:43:36.520Z,56.10
2022-08-23T01:46:13.033Z,56.00
2022-08-23T01:48:39.794Z,56.10
2022-08-23T01:51:07.160Z,56.30
2022-08-23T01:53:34.589Z,56.30
2022-08-23T01:56:03.950Z,56.30
2022-08-23T01:58:32.599Z,56.30
2022-08-23T02:00:59.716Z,56.60
2022-08-23T02:03:27.874Z,56.30
2022-08-23T02:05:55.189Z,56.40
2022-08-23T02:08:40.702Z,56.40
2022-08-23T02:11:10.413Z,56.20
2022-08-23T02:13:39.316Z,56.30
2022-08-23T02:16:06.178Z,56.10
2022-08-23T02:18:33.142Z,56.00
2022-08-23T02:21:00.357Z,56.00
2022-08-23T02:23:28.019Z,55.90
2022-08-23T02:25:55.298Z,55.90
2022-08-23T02:28:23.583Z,55.70
2022-08-23T02:30:51.243Z,55.90
2022-08-23T02:33:18.806Z,55.90
2022-08-23T02:35:47.060Z,55.90
2022-08-23T02:38:14.018Z,56.00
2022-08-23T02:40:42.318Z,55.90
2022-08-23T02:43:09.436Z,55.90
2022-08-23T02:45:36.618Z,56.10
2022-08-23T02:48:04.725Z,56.30
2022-08-23T02:50:32.139Z,56.40
2022-08-23T02:52:58.742Z,56.50
2022-08-23T02:55:25.893Z,56.40
2022-08-23T02:57:52.584Z,56.50
2022-08-23T03:00:19.717Z,56.50
2022-08-23T03:02:46.874Z,56.40
2022-08-23T03:05:15.423Z,56.40
2022-08-23T03:07:42.246Z,56.40
2022-08-23T03:10:09.540Z,56.30
2022-08-23T03:12:36.436Z,56.30
2022-08-23T03:15:03.443Z,56.10
2022-08-23T03:17:32.670Z,56.20
2022-08-23T03:19:59.388Z,56.00
2022-08-23T03:22:26.425Z,56.00
2022-08-23T03:24:53.103Z,56.10
2022-08-23T03:27:19.748Z,56.10
2022-08-23T03:29:46.388Z,56.20
2022-08-23T03:32:15.472Z,56.40
2022-08-23T03:34:42.369Z,56.40
2022-08-23T03:37:09.081Z,56.40
2022-08-23T03:39:35.902Z,56.40
2022-08-23T03:42:03.451Z,56.50
2022-08-23T03:44:30.281Z,56.50
2022-08-23T03:46:56.985Z,56.50
2022-08-23T03:49:23.669Z,56.50
2022-08-23T03:51:50.486Z,56.50
2022-08-23T03:54:17.365Z,56.60
2022-08-23T03:56:54.566Z,56.60
2022-08-23T03:59:21.641Z,56.70
2022-08-23T04:01:49.331Z,56.60
2022-08-23T04:04:16.079Z,56.60
2022-08-23T04:06:45.033Z,56.60
2022-08-23T04:09:15.881Z,56.40
2022-08-23T04:11:43.904Z,56.60
2022-08-23T04:14:11.114Z,56.30
2022-08-23T04:16:37.865Z,56.30
2022-08-23T04:19:14.432Z,56.40
2022-08-23T04:21:48.258Z,56.70
2022-08-23T04:24:16.966Z,56.50
2022-08-23T04:26:43.710Z,56.30
2022-08-23T04:29:33.533Z,56.20
2022-08-23T04:32:02.805Z,56.20
2022-08-23T04:34:33.746Z,56.20
2022-08-23T04:37:00.852Z,56.20
2022-08-23T04:39:29.127Z,56.30
2022-08-23T04:42:15.075Z,56.40
2022-08-23T04:44:41.830Z,56.50
2022-08-23T04:47:08.449Z,56.50
2022-08-23T04:49:35.187Z,56.40
2022-08-23T04:52:02.369Z,56.60
2022-08-23T04:54:29.355Z,56.40
2022-08-23T04:56:56.461Z,56.40
2022-08-23T04:59:23.278Z,56.30
2022-08-23T05:01:51.296Z,56.40
2022-08-23T05:04:18.573Z,56.70
2022-08-23T05:06:46.009Z,56.50
2022-08-23T05:09:15.095Z,56.60
2022-08-23T05:11:45.716Z,56.30
2022-08-23T05:14:12.484Z,56.30
2022-08-23T05:16:39.165Z,56.30
2022-08-23T05:19:05.803Z,56.40
2022-08-23T05:21:32.484Z,56.50
2022-08-23T05:24:00.721Z,56.60
2022-08-23T05:26:30.370Z,56.60
2022-08-23T05:28:57.113Z,56.50
2022-08-23T05:31:27.335Z,56.60
2022-08-23T05:33:54.095Z,56.90
2022-08-23T05:36:22.088Z,56.70
2022-08-23T05:38:50.527Z,56.90
2022-08-23T05:41:17.348Z,56.80
2022-08-23T05:43:44.058Z,56.80
2022-08-23T05:46:18.302Z,56.90
2022-08-23T05:48:48.447Z,57.40
2022-08-23T05:51:19.997Z,57.10
2022-08-23T05:53:48.885Z,57.10
2022-08-23T05:56:21.902Z,56.80
2022-08-23T05:58:50.345Z,56.90
2022-08-23T06:01:18.322Z,56.50
2022-08-23T06:03:45.730Z,56.50
2022-08-23T06:06:15.809Z,56.50
2022-08-23T06:08:47.227Z,56.60
2022-08-23T06:11:22.663Z,56.60
2022-08-23T06:13:52.706Z,56.80
2022-08-23T06:16:22.725Z,56.80
2022-08-23T06:18:49.764Z,56.90
2022-08-23T06:21:16.867Z,56.80
2022-08-23T06:23:44.378Z,56.80
2022-08-23T06:26:19.803Z,59.00
2022-08-23T06:28:50.933Z,58.70
2022-08-23T06:31:39.909Z,57.70
2022-08-23T06:34:11.052Z,57.40
2022-08-23T06:36:38.120Z,57.40
2022-08-23T06:39:07.615Z,57.40
2022-08-23T06:41:35.095Z,57.50
2022-08-23T06:44:03.937Z,57.10
2022-08-23T06:46:33.051Z,57.20
2022-08-23T06:49:00.731Z,57.40
2022-08-23T06:51:32.175Z,57.20
2022-08-23T06:54:03.189Z,57.30
2022-08-23T06:56:30.546Z,57.30
2022-08-23T06:58:57.853Z,57.00
2022-08-23T07:01:47.628Z,57.10
2022-08-23T07:04:18.058Z,56.20
2022-08-23T07:06:45.219Z,57.10
2022-08-23T07:09:12.245Z,56.60
2022-08-23T07:11:39.671Z,56.40
2022-08-23T07:14:10.649Z,56.30
2022-08-23T07:16:48.288Z,57.10
2022-08-23T07:19:15.993Z,57.00
2022-08-23T07:21:43.516Z,56.20
2022-08-23T07:24:13.815Z,56.70
2022-08-23T07:26:42.194Z,57.10
2022-08-23T07:29:11.315Z,56.60
2022-08-23T07:31:44.850Z,56.90
2022-08-23T07:34:12.497Z,57.00
2022-08-23T07:36:40.903Z,57.30
2022-08-23T07:39:08.938Z,57.60
2022-08-23T07:41:38.705Z,58.00
2022-08-23T07:44:08.801Z,58.20
2022-08-23T07:46:37.428Z,58.70
2022-08-23T07:49:05.304Z,58.40
2022-08-23T07:51:36.282Z,59.00
2022-08-23T07:54:05.427Z,59.60
2022-08-23T07:56:32.093Z,60.20
2022-08-23T07:58:59.030Z,60.60
2022-08-23T08:01:27.983Z,60.60
2022-08-23T08:04:00.018Z,60.80
2022-08-23T08:06:33.771Z,60.90
2022-08-23T08:09:00.420Z,61.00
2022-08-23T08:11:34.278Z,60.80
2022-08-23T08:14:05.208Z,60.80
2022-08-23T08:16:34.919Z,60.50
2022-08-23T08:19:04.211Z,60.00
2022-08-23T08:21:30.964Z,59.90
2022-08-23T08:23:58.673Z,59.90
2022-08-23T08:26:27.424Z,59.60
2022-08-23T08:28:56.395Z,59.10
2022-08-23T08:31:24.579Z,58.90
2022-08-23T08:33:51.926Z,58.80
2022-08-23T08:36:41.136Z,58.60
2022-08-23T08:39:11.230Z,58.20
2022-08-23T08:42:04.511Z,58.20
2022-08-23T08:44:37.922Z,58.10
2022-08-23T08:47:14.455Z,57.60
2022-08-23T08:50:02.587Z,57.50
2022-08-23T08:52:38.698Z,56.90
2022-08-23T08:55:22.151Z,56.90
2022-08-23T08:57:50.083Z,56.60
2022-08-23T09:00:24.165Z,56.20
2022-08-23T09:02:51.425Z,56.10
2022-08-23T09:05:24.513Z,55.70
2022-08-23T09:08:01.014Z,55.40
2022-08-23T09:10:40.306Z,55.00
2022-08-23T09:13:31.961Z,54.80
2022-08-23T09:16:10.324Z,54.30
2022-08-23T09:18:37.395Z,54.40
2022-08-23T09:21:07.717Z,53.80
2022-08-23T09:23:44.370Z,53.30
2022-08-23T09:26:27.756Z,53.10
2022-08-23T09:29:02.463Z,53.20
2022-08-23T09:31:43.372Z,52.70
2022-08-23T09:34:15.734Z,52.90
2022-08-23T09:36:42.705Z,52.30
2022-08-23T09:39:30.460Z,51.90
2022-08-23T09:41:58.713Z,51.80
2022-08-23T09:44:32.068Z,51.30
2022-08-23T09:47:33.293Z,51.20
2022-08-23T09:50:15.765Z,51.40
2022-08-23T09:52:43.102Z,51.20
2022-08-23T09:55:25.562Z,50.60
2022-08-23T09:57:52.778Z,50.40
2022-08-23T10:00:30.785Z,50.20
2022-08-23T10:03:25.210Z,50.30
2022-08-23T10:05:57.746Z,50.10
2022-08-23T10:08:32.839Z,49.80
2022-08-23T10:11:10.724Z,49.90
2022-08-23T10:13:41.668Z,49.40
2022-08-23T10:16:42.085Z,49.30
2022-08-23T10:19:08.695Z,49.30
2022-08-23T10:21:49.685Z,48.70
2022-08-23T10:24:41.044Z,49.10
2022-08-23T10:30:15.622Z,47.00
2022-08-23T10:32:56.689Z,47.10
2022-08-23T10:35:29.901Z,47.30
2022-08-23T11:52:31.410Z,39.70
2022-08-23T11:55:22.684Z,40.70
2022-08-23T11:58:15.361Z,41.00
2022-08-23T12:01:06.724Z,40.90
2022-08-23T12:03:54.649Z,41.30
2022-08-23T12:06:52.987Z,41.50
2022-08-23T12:09:22.882Z,41.30
2022-08-23T12:11:55.599Z,40.90
2022-08-23T12:14:31.374Z,40.60
2022-08-23T12:17:18.189Z,40.90
2022-08-23T12:19:51.077Z,41.00
2022-08-23T12:22:22.398Z,41.00
2022-08-23T12:25:03.261Z,41.40
2022-08-23T12:27:42.707Z,41.10
2022-08-23T12:30:27.184Z,40.60
2022-08-23T12:32:56.834Z,41.30
2022-08-23T12:35:36.315Z,42.00
2022-08-23T12:38:39.466Z,41.00
2022-08-23T12:41:52.716Z,41.30
2022-08-23T12:44:22.536Z,41.60
2022-08-23T12:46:51.011Z,40.50
2022-08-23T12:49:32.176Z,40.40
2022-08-23T12:52:07.719Z,40.60
2022-08-23T12:54:44.188Z,40.70
2022-08-23T12:57:31.030Z,40.80
2022-08-23T13:00:34.036Z,40.70
2022-08-23T13:03:15.838Z,41.10
2022-08-23T13:06:02.026Z,40.60
2022-08-23T13:09:13.267Z,41.40
2022-08-23T13:11:42.296Z,41.60
2022-08-23T13:14:33.696Z,41.10
2022-08-23T13:17:16.588Z,41.60
2022-08-23T13:19:43.734Z,41.90
2022-08-23T13:22:31.527Z,41.30
2022-08-23T13:25:28.868Z,41.60
2022-08-23T13:28:00.702Z,41.10
2022-08-23T13:30:38.706Z,40.90
2022-08-23T13:33:08.404Z,40.90
2022-08-23T13:35:44.697Z,40.60
2022-08-23T13:38:18.360Z,40.60
2022-08-23T13:40:56.324Z,40.80
2022-08-23T13:43:29.311Z,40.50
2022-08-23T13:45:59.310Z,40.60
2022-08-23T13:48:31.748Z,40.20
2022-08-23T13:51:27.623Z,40.10
2022-08-23T13:53:56.261Z,40.80
2022-08-23T13:56:23.998Z,40.00
2022-08-23T13:59:26.920Z,39.60
2022-08-23T14:02:01.595Z,40.60
2022-08-23T14:04:28.609Z,39.40
2022-08-23T14:06:55.387Z,39.60
2022-08-23T14:09:22.053Z,39.70
2022-08-23T14:11:56.488Z,39.40
2022-08-23T14:14:24.351Z,39.20
2022-08-23T14:16:53.560Z,39.10
2022-08-23T14:22:06.900Z,38.70
2022-08-23T14:24:33.595Z,39.10
2022-08-23T14:27:00.576Z,39.10
2022-08-23T14:29:30.788Z,39.20
2022-08-23T14:31:59.138Z,39.30
2022-08-23T14:34:27.472Z,39.00
2022-08-23T14:39:41.081Z,39.50
2022-08-23T14:42:08.357Z,39.40
2022-08-23T14:44:36.227Z,39.80
2022-08-23T14:47:04.620Z,39.70
2022-08-23T14:49:31.287Z,40.00
2022-08-23T14:51:58.025Z,39.90
2022-08-23T14:54:26.202Z,39.70
2022-08-23T14:56:53.464Z,39.60
2022-08-23T14:59:20.717Z,39.30
2022-08-23T15:01:49.669Z,38.70
2022-08-23T15:04:20.070Z,38.00
2022-08-23T15:07:13.982Z,38.10
2022-08-23T15:09:38.303Z,37.90
2022-08-23T15:14:52.110Z,38.30
2022-08-23T15:17:18.829Z,38.20
2022-08-23T15:19:45.447Z,38.40
2022-08-23T15:22:18.505Z,38.80
2022-08-23T15:24:49.629Z,38.80
2022-08-23T15:27:17.873Z,39.00
2022-08-23T15:29:44.717Z,39.40
2022-08-23T15:32:12.624Z,39.30
2022-08-23T15:34:45.836Z,39.30
2022-08-23T15:37:20.068Z,39.70
2022-08-23T15:39:46.864Z,39.80
2022-08-23T15:42:20.087Z,40.00
2022-08-23T15:44:47.999Z,40.40
2022-08-23T15:47:27.788Z,40.20
2022-08-23T15:49:55.870Z,40.70
2022-08-23T15:52:22.568Z,41.10
2022-08-23T15:54:49.267Z,41.20
2022-08-23T15:57:23.226Z,41.40
2022-08-23T15:59:50.210Z,41.80
2022-08-23T16:02:16.905Z,41.80
2022-08-23T16:04:43.999Z,41.60
2022-08-23T16:07:15.051Z,41.90
2022-08-23T16:09:42.344Z,42.40
2022-08-23T16:12:09.911Z,42.50
2022-08-23T16:14:38.468Z,42.70
2022-08-23T16:17:05.843Z,43.00
2022-08-23T16:19:32.872Z,43.30
2022-08-23T16:21:59.960Z,43.40
2022-08-23T16:24:27.926Z,43.60
2022-08-23T16:26:57.407Z,43.80
2022-08-23T16:29:24.212Z,44.00
2022-08-23T16:31:50.950Z,44.20
2022-08-23T16:34:19.857Z,44.20
2022-08-23T16:36:51.636Z,44.60
2022-08-23T16:39:18.315Z,44.60
2022-08-23T16:41:45.179Z,44.70
2022-08-23T16:44:12.138Z,44.80
2022-08-23T16:46:43.889Z,45.00
2022-08-23T16:49:13.437Z,45.30
2022-08-23T16:51:40.957Z,45.50
2022-08-23T16:54:08.403Z,45.60
2022-08-23T16:56:36.640Z,45.90
2022-08-23T16:59:04.976Z,45.90
2022-08-23T17:01:47.579Z,46.10
2022-08-23T17:04:15.505Z,46.30
2022-08-23T17:06:43.178Z,46.60
2022-08-23T17:09:10.157Z,46.80
2022-08-23T17:11:37.386Z,47.00
2022-08-23T18:27:21.732Z,50.40
2022-08-23T18:29:51.698Z,50.50
2022-08-23T18:32:18.965Z,51.00
2022-08-23T18:34:46.241Z,51.00
2022-08-23T18:37:16.883Z,51.10
2022-08-23T18:39:44.458Z,51.20
2022-08-23T18:42:12.081Z,51.40
2022-08-23T18:44:38.827Z,51.50
2022-08-23T18:47:05.592Z,51.50
2022-08-23T18:49:36.462Z,51.60
2022-08-23T18:52:03.592Z,51.60
2022-08-23T18:54:33.724Z,51.80
2022-08-23T18:57:01.615Z,52.00
2022-08-23T18:59:28.351Z,52.00
2022-08-23T19:01:55.447Z,52.10
2022-08-23T19:04:22.584Z,52.20
2022-08-23T19:06:49.665Z,52.20
2022-08-23T19:09:21.230Z,52.20
2022-08-23T19:11:47.858Z,52.40
2022-08-23T19:14:14.549Z,52.50
2022-08-23T19:16:47.346Z,52.50
2022-08-23T19:19:15.377Z,52.60
2022-08-23T19:21:42.088Z,52.50
2022-08-23T19:24:08.716Z,52.50
2022-08-23T19:26:41.780Z,52.40
2022-08-23T19:29:09.192Z,52.90
2022-08-23T19:31:43.200Z,52.80
2022-08-23T19:34:11.814Z,53.00
2022-08-23T19:36:48.270Z,52.90
2022-08-23T19:39:17.914Z,53.00
2022-08-23T19:41:48.576Z,53.20
2022-08-23T19:44:17.675Z,53.40
2022-08-23T19:46:45.341Z,53.30
2022-08-23T19:49:13.266Z,53.30
2022-08-23T19:51:40.908Z,53.50
2022-08-23T19:54:11.572Z,53.40
2022-08-23T19:56:46.357Z,53.40
2022-08-23T19:59:32.987Z,53.40
2022-08-23T20:01:59.779Z,53.30
2022-08-23T20:04:29.399Z,53.70
2022-08-23T20:06:57.587Z,53.70
2022-08-23T20:09:25.908Z,53.80
2022-08-23T20:11:52.824Z,54.00
2022-08-23T20:14:21.708Z,53.90
2022-08-23T20:16:50.137Z,54.10
2022-08-23T20:19:16.943Z,54.10
2022-08-23T20:21:44.363Z,54.20
2022-08-23T20:24:13.173Z,54.20
2022-08-23T20:26:48.271Z,54.30
2022-08-23T20:29:18.399Z,54.60
2022-08-23T20:31:54.240Z,54.70
2022-08-23T20:34:22.061Z,54.60
2022-08-23T20:36:52.551Z,54.60
2022-08-23T20:39:23.792Z,54.80
2022-08-23T20:41:51.429Z,54.90
2022-08-23T20:44:20.687Z,54.80
2022-08-23T20:46:51.856Z,54.80
2022-08-23T20:49:21.443Z,55.00
2022-08-23T20:51:48.738Z,55.10
2022-08-23T20:54:17.296Z,55.30
2022-08-23T20:56:46.651Z,55.30
2022-08-23T20:59:14.618Z,55.20
2022-08-23T21:01:41.287Z,55.40
2022-08-23T21:04:07.988Z,55.40
2022-08-23T21:06:45.729Z,55.30
2022-08-23T21:09:16.861Z,55.60
2022-08-23T21:11:44.012Z,55.60
2022-08-23T21:14:11.004Z,55.60
2022-08-23T21:16:38.051Z,55.70
2022-08-23T21:19:05.092Z,55.60
2022-08-23T21:21:31.802Z,55.60
2022-08-23T21:23:58.602Z,55.80
2022-08-23T21:26:26.008Z,55.60
2022-08-23T21:28:53.012Z,55.70
2022-08-23T21:31:22.467Z,55.80
2022-08-23T21:33:49.583Z,55.90
2022-08-23T21:36:17.656Z,55.90
2022-08-23T21:38:45.377Z,55.80
2022-08-23T21:41:36.472Z,56.00
2022-08-23T21:44:06.343Z,55.40
2022-08-23T21:46:33.821Z,56.20
2022-08-23T21:49:00.527Z,56.10
2022-08-23T21:51:27.891Z,56.10
2022-08-23T21:53:54.633Z,56.10
2022-08-23T21:56:21.506Z,56.10
2022-08-23T21:58:50.717Z,56.10
2022-08-23T22:01:18.523Z,56.40
2022-08-23T22:03:45.264Z,56.10
2022-08-23T22:06:14.665Z,56.40
2022-08-23T22:08:42.293Z,56.40
2022-08-23T22:11:09.460Z,56.30
2022-08-23T22:13:36.072Z,56.40
2022-08-23T22:16:03.061Z,56.20
2022-08-23T22:18:30.984Z,56.20
2022-08-23T22:20:58.953Z,56.40
2022-08-23T22:23:26.970Z,56.30
2022-08-23T22:26:00.389Z,56.30
2022-08-23T22:28:29.803Z,56.50
2022-08-23T22:31:05.018Z,56.30
2022-08-23T22:33:32.836Z,56.50
2022-08-23T22:36:05.940Z,56.50
2022-08-23T22:38:32.816Z,56.70
2022-08-23T22:40:59.449Z,56.50
2022-08-23T22:43:26.448Z,56.50
2022-08-23T22:46:00.326Z,56.60
2022-08-23T22:48:29.229Z,56.80
2022-08-23T22:51:08.456Z,56.40
2022-08-23T22:53:41.433Z,56.40
2022-08-23T22:56:15.044Z,56.80
2022-08-23T22:58:41.703Z,56.70
2022-08-23T23:01:12.987Z,56.40
2022-08-23T23:03:41.185Z,56.60
2022-08-23T23:06:08.128Z,56.60
2022-08-23T23:08:34.745Z,56.80
2022-08-23T23:11:04.076Z,56.70
2022-08-23T23:13:31.918Z,57.00
2022-08-23T23:16:02.131Z,56.70
2022-08-23T23:18:28.888Z,56.80
2022-08-23T23:21:00.235Z,56.90
2022-08-23T23:23:28.007Z,57.10
2022-08-23T23:25:54.957Z,57.00
2022-08-23T23:28:22.175Z,57.00
2022-08-23T23:30:53.608Z,57.10
2022-08-23T23:33:21.403Z,57.50
2022-08-23T23:35:48.905Z,57.20
2022-08-23T23:38:16.569Z,57.00
2022-08-23T23:40:44.215Z,57.20
2022-08-23T23:43:13.173Z,57.40
2022-08-23T23:45:40.950Z,57.50
2022-08-23T23:48:08.674Z,57.30
2022-08-23T23:50:36.738Z,57.20
2022-08-23T23:53:04.381Z,57.10
2022-08-23T23:55:31.173Z,57.20
2022-08-23T23:57:58.505Z,57.40
